Time;durP1;ratioP1;P1;durP2;ratioP2;P2;SDS_P1;SDS_P2;PMS_P1;PMS_P2;Temp;Humidity;BMP_temperature;BMP_pressure;BME280_temperature;BME280_humidity;BME280_pressure;Samples;Min_cycle;Max_cycle;Signal;HPM_P1;HPM_P2
2022/11/21 00:00:41;;;;;;;45.10;25.53;;;0.20;99.90;;;;;;5065340;28;20248;-65
2022/11/21 00:03:10;;;;;;;45.60;25.37;;;0.20;99.90;;;;;;5051187;28;20219;-65
2022/11/21 00:05:40;;;;;;;46.50;25.43;;;0.20;99.90;;;;;;5050744;28;20205;-65
2022/11/21 00:08:07;;;;;;;46.23;26.67;;;0.30;99.90;;;;;;5051415;28;20546;-65
2022/11/21 00:10:36;;;;;;;44.47;24.57;;;0.30;99.90;;;;;;5051220;28;20216;-64
2022/11/21 00:13:02;;;;;;;43.70;24.63;;;0.30;99.90;;;;;;5051125;28;20212;-65
2022/11/21 00:15:29;;;;;;;47.03;25.87;;;0.30;99.90;;;;;;5050582;28;20237;-66
2022/11/21 00:17:57;;;;;;;40.13;23.73;;;0.30;99.90;;;;;;5062567;28;20220;-65
2022/11/21 00:20:24;;;;;;;48.23;25.63;;;0.30;99.90;;;;;;5091107;28;20207;-65
2022/11/21 00:22:51;;;;;;;52.97;26.90;;;0.30;99.90;;;;;;5090404;28;20295;-65
2022/11/21 00:25:18;;;;;;;41.47;25.00;;;0.30;99.90;;;;;;5090573;28;20204;-65
2022/11/21 00:27:45;;;;;;;51.50;25.80;;;0.30;99.90;;;;;;5078970;28;20680;-64
2022/11/21 00:30:12;;;;;;;50.73;26.37;;;0.30;99.90;;;;;;5062455;28;20201;-65
2022/11/21 00:32:39;;;;;;;49.30;26.47;;;0.30;99.90;;;;;;5071796;28;20224;-65
2022/11/21 00:35:08;;;;;;;44.67;24.90;;;0.30;99.90;;;;;;5070826;28;20212;-65
2022/11/21 00:37:35;;;;;;;48.70;26.57;;;0.30;99.90;;;;;;5072924;28;20223;-65
2022/11/21 00:40:02;;;;;;;46.00;24.93;;;0.30;99.90;;;;;;5073435;28;20211;-65
2022/11/21 00:42:28;;;;;;;59.17;27.40;;;0.30;99.90;;;;;;5073709;28;20200;-65
2022/11/21 00:44:55;;;;;;;64.17;28.93;;;0.30;99.90;;;;;;5073888;28;20205;-65
2022/11/21 00:47:22;;;;;;;53.50;26.07;;;0.40;99.90;;;;;;5073799;28;20228;-65
2022/11/21 00:49:49;;;;;;;51.53;27.13;;;0.40;99.90;;;;;;5064046;28;20205;-65
2022/11/21 00:52:17;;;;;;;53.47;27.80;;;0.40;99.90;;;;;;5054045;28;20670;-64
2022/11/21 00:54:44;;;;;;;48.27;26.00;;;0.40;99.90;;;;;;5054368;28;20666;-65
2022/11/21 00:57:11;;;;;;;47.27;25.77;;;0.40;99.90;;;;;;5054105;28;20201;-65
2022/11/21 00:59:38;;;;;;;51.40;27.37;;;0.40;99.90;;;;;;5062289;28;20712;-64
2022/11/21 01:02:05;;;;;;;46.13;25.77;;;0.40;99.90;;;;;;5072993;28;20208;-65
2022/11/21 01:04:32;;;;;;;62.07;27.93;;;0.40;99.90;;;;;;5073939;28;20205;-66
2022/11/21 01:06:59;;;;;;;55.20;27.83;;;0.40;99.90;;;;;;5074385;28;20227;-66
2022/11/21 01:09:28;;;;;;;54.13;26.77;;;0.40;99.90;;;;;;5073671;28;20213;-65
2022/11/21 01:11:55;;;;;;;54.13;26.77;;;0.40;99.90;;;;;;5073317;28;20224;-65
2022/11/21 01:14:21;;;;;;;53.40;25.77;;;0.40;99.90;;;;;;5073803;28;20736;-65
2022/11/21 01:16:49;;;;;;;53.77;26.17;;;0.40;99.90;;;;;;5073910;28;20240;-65
2022/11/21 01:19:16;;;;;;;60.27;27.10;;;0.40;99.90;;;;;;5073716;28;20599;-65
2022/11/21 01:21:42;;;;;;;50.03;26.10;;;0.40;99.90;;;;;;5073691;28;20205;-64
2022/11/21 01:24:11;;;;;;;56.67;27.07;;;0.40;99.90;;;;;;5055880;28;20206;-65
2022/11/21 01:26:39;;;;;;;56.00;26.13;;;0.40;99.90;;;;;;5053147;28;20217;-65
2022/11/21 01:29:07;;;;;;;52.03;25.70;;;0.40;99.90;;;;;;5053033;28;20209;-64
2022/11/21 01:31:34;;;;;;;71.07;28.17;;;0.40;99.90;;;;;;5052989;28;20226;-66
2022/11/21 01:34:01;;;;;;;55.30;26.70;;;0.40;99.90;;;;;;5052882;28;20688;-65
2022/11/21 01:36:30;;;;;;;52.43;25.93;;;0.40;99.90;;;;;;5052908;28;20298;-65
2022/11/21 01:38:59;;;;;;;59.27;27.57;;;0.40;99.90;;;;;;5053576;28;20215;-64
2022/11/21 01:41:30;;;;;;;66.13;28.50;;;0.50;99.90;;;;;;5053291;28;20209;-64
2022/11/21 01:43:58;;;;;;;51.13;26.17;;;0.50;99.90;;;;;;5053528;28;20255;-65
2022/11/21 01:46:25;;;;;;;57.20;26.23;;;0.50;99.90;;;;;;5052956;28;20229;-66
2022/11/21 01:49:02;;;;;;;66.93;29.70;;;0.50;99.90;;;;;;5051826;28;20209;-66
2022/11/21 01:51:33;;;;;;;61.90;27.00;;;0.50;99.90;;;;;;5060114;28;20663;-64
2022/11/21 01:54:05;;;;;;;97.03;33.70;;;0.50;99.90;;;;;;5071240;28;20204;-63
2022/11/21 01:56:35;;;;;;;47.67;24.90;;;0.50;99.90;;;;;;5072266;28;20221;-64
2022/11/21 01:59:04;;;;;;;50.00;26.13;;;0.50;99.90;;;;;;5073501;28;20660;-65
2022/11/21 02:01:32;;;;;;;53.57;28.13;;;0.50;99.90;;;;;;5073580;28;20370;-65
2022/11/21 02:04:02;;;;;;;73.60;29.87;;;0.50;99.90;;;;;;5073614;28;20205;-65
2022/11/21 02:06:30;;;;;;;59.30;29.03;;;0.50;99.90;;;;;;5060436;28;20228;-65
2022/11/21 02:08:58;;;;;;;80.40;32.00;;;0.40;99.90;;;;;;5053699;28;20212;-64
2022/11/21 02:11:30;;;;;;;84.33;30.33;;;0.50;99.90;;;;;;5053500;28;20205;-65
2022/11/21 02:13:59;;;;;;;73.73;30.53;;;0.40;99.90;;;;;;5053680;28;20200;-65
2022/11/21 02:16:27;;;;;;;59.17;28.47;;;0.50;99.90;;;;;;5053291;28;20202;-64
2022/11/21 02:18:54;;;;;;;68.70;29.40;;;0.40;99.90;;;;;;5052541;28;20202;-65
2022/11/21 02:21:27;;;;;;;55.73;28.03;;;0.40;99.90;;;;;;5053121;28;20216;-65
2022/11/21 02:24:00;;;;;;;69.00;29.53;;;0.50;99.90;;;;;;5053558;28;20189;-66
2022/11/21 02:26:30;;;;;;;59.93;27.47;;;0.50;99.90;;;;;;5052989;28;20210;-65
2022/11/21 02:28:57;;;;;;;50.57;26.07;;;0.50;99.90;;;;;;5053122;28;20205;-65
2022/11/21 02:31:24;;;;;;;49.67;26.73;;;0.60;99.90;;;;;;5053320;28;20581;-67
2022/11/21 02:33:51;;;;;;;58.80;28.40;;;0.60;99.90;;;;;;5053034;28;20205;-65
2022/11/21 02:36:43;;;;;;;60.60;26.87;;;0.60;99.90;;;;;;5053176;28;20208;-64
2022/11/21 02:39:15;;;;;;;137.17;34.17;;;0.60;99.90;;;;;;5052995;28;20285;-66
2022/11/21 02:41:50;;;;;;;68.73;28.07;;;0.60;99.90;;;;;;5053210;28;20569;-65
2022/11/21 02:44:22;;;;;;;51.37;25.00;;;0.60;99.90;;;;;;5052788;28;20224;-65
2022/11/21 02:46:51;;;;;;;57.90;28.10;;;0.50;99.90;;;;;;5052470;28;20216;-66
2022/11/21 02:49:28;;;;;;;51.43;26.13;;;0.60;99.90;;;;;;5058881;28;20649;-66
2022/11/21 02:51:54;;;;;;;51.90;25.30;;;0.60;99.90;;;;;;5071964;28;20185;-64
2022/11/21 02:54:21;;;;;;;60.73;28.03;;;0.60;99.90;;;;;;5072177;28;20208;-65
2022/11/21 02:56:49;;;;;;;48.57;25.03;;;0.50;99.90;;;;;;5072722;28;20196;-66
2022/11/21 02:59:16;;;;;;;60.03;26.53;;;0.50;99.90;;;;;;5071376;28;20211;-64
2022/11/21 03:01:43;;;;;;;62.87;28.70;;;0.60;99.90;;;;;;5071340;28;20208;-65
2022/11/21 03:04:09;;;;;;;71.53;29.97;;;0.60;99.90;;;;;;5070648;28;20211;-65
2022/11/21 03:06:36;;;;;;;60.10;27.43;;;0.50;99.90;;;;;;5072021;28;20216;-65
2022/11/21 03:09:03;;;;;;;63.07;28.10;;;0.50;99.90;;;;;;5072304;28;20575;-65
2022/11/21 03:11:30;;;;;;;58.53;29.20;;;0.50;99.90;;;;;;5071985;28;20208;-65
2022/11/21 03:13:58;;;;;;;65.67;30.70;;;0.50;99.90;;;;;;5072037;28;20204;-64
2022/11/21 03:16:25;;;;;;;65.97;30.00;;;0.50;99.90;;;;;;5071365;28;20201;-65
2022/11/21 03:18:52;;;;;;;82.20;31.40;;;0.50;99.90;;;;;;5052013;28;20213;-65
2022/11/21 03:21:19;;;;;;;70.67;31.43;;;0.50;99.90;;;;;;5052443;28;20375;-64
2022/11/21 03:23:46;;;;;;;65.20;31.10;;;0.50;99.90;;;;;;5052481;28;20212;-65
2022/11/21 03:26:12;;;;;;;61.07;30.50;;;0.50;99.90;;;;;;5051935;28;20205;-64
2022/11/21 03:28:41;;;;;;;54.17;28.77;;;0.60;99.90;;;;;;5052253;28;20236;-65
2022/11/21 03:31:09;;;;;;;63.70;30.47;;;0.50;99.90;;;;;;5051671;28;20225;-64
2022/11/21 03:33:36;;;;;;;72.87;33.27;;;0.60;99.90;;;;;;5051706;28;20213;-65
2022/11/21 03:36:03;;;;;;;84.67;31.47;;;0.60;99.90;;;;;;5051669;28;20216;-64
2022/11/21 03:38:30;;;;;;;67.03;30.87;;;0.60;99.90;;;;;;5052034;28;20311;-65
2022/11/21 03:40:57;;;;;;;63.83;30.83;;;0.60;99.90;;;;;;5052013;28;20224;-65
2022/11/21 03:43:23;;;;;;;76.23;31.83;;;0.60;99.90;;;;;;5052036;28;20559;-65
2022/11/21 03:45:50;;;;;;;64.10;30.57;;;0.60;99.90;;;;;;5051840;28;20211;-65
2022/11/21 03:48:18;;;;;;;59.80;28.63;;;0.70;99.90;;;;;;5058839;28;20220;-65
2022/11/21 03:50:45;;;;;;;56.03;28.07;;;0.60;99.90;;;;;;5071677;28;20205;-65
2022/11/21 03:53:12;;;;;;;52.07;27.47;;;0.60;99.90;;;;;;5053221;28;20232;-64
2022/11/21 03:55:39;;;;;;;61.57;29.30;;;0.70;99.90;;;;;;5051805;28;20211;-66
2022/11/21 03:58:05;;;;;;;57.90;28.40;;;0.70;99.90;;;;;;5051545;28;20650;-66
2022/11/21 04:00:32;;;;;;;59.77;28.97;;;0.70;99.90;;;;;;5051241;28;20245;-65
2022/11/21 04:03:00;;;;;;;77.53;30.13;;;0.70;99.90;;;;;;5054508;28;20201;-65
2022/11/21 04:05:28;;;;;;;66.37;29.37;;;0.70;99.90;;;;;;5071736;28;20201;-64
2022/11/21 04:07:55;;;;;;;60.80;28.60;;;0.70;99.90;;;;;;5071353;28;20217;-66
2022/11/21 04:10:23;;;;;;;47.67;25.73;;;0.70;99.90;;;;;;5071241;28;20213;-65
2022/11/21 04:12:49;;;;;;;51.10;25.57;;;0.70;99.90;;;;;;5060120;28;20218;-67
2022/11/21 04:15:16;;;;;;;52.73;27.43;;;0.60;99.90;;;;;;5059136;28;20195;-65
2022/11/21 04:17:43;;;;;;;66.33;29.77;;;0.60;99.90;;;;;;5079841;28;20235;-65
2022/11/21 04:20:11;;;;;;;51.53;27.20;;;0.60;99.90;;;;;;5079339;28;20192;-66
2022/11/21 04:22:39;;;;;;;50.47;26.53;;;0.60;99.90;;;;;;5075977;28;20567;-65
2022/11/21 04:25:07;;;;;;;62.40;29.20;;;0.70;99.90;;;;;;5080039;28;20225;-66
2022/11/21 04:27:34;;;;;;;54.13;28.47;;;0.70;99.90;;;;;;5078452;28;20219;-66
2022/11/21 04:30:01;;;;;;;57.40;26.77;;;0.60;99.90;;;;;;5080948;28;20564;-64
2022/11/21 04:32:27;;;;;;;67.37;27.80;;;0.60;99.90;;;;;;5089451;28;20207;-65
2022/11/21 04:34:54;;;;;;;57.80;27.70;;;0.60;99.90;;;;;;5065610;28;20208;-66
2022/11/21 04:37:21;;;;;;;52.43;26.80;;;0.60;99.90;;;;;;5070995;28;20200;-65
2022/11/21 04:39:49;;;;;;;47.63;24.97;;;0.60;99.90;;;;;;5070811;28;20228;-64
2022/11/21 04:42:16;;;;;;;66.77;29.27;;;0.60;99.90;;;;;;5079129;28;20555;-65
2022/11/21 04:44:42;;;;;;;59.23;27.63;;;0.60;99.90;;;;;;5074036;28;20572;-66
2022/11/21 04:47:09;;;;;;;56.13;27.03;;;0.60;99.90;;;;;;5073601;28;20576;-65
2022/11/21 04:49:36;;;;;;;57.67;26.60;;;0.60;99.90;;;;;;5075350;28;20203;-66
2022/11/21 04:52:03;;;;;;;53.27;27.60;;;0.60;99.90;;;;;;5080791;28;20687;-65
2022/11/21 04:54:30;;;;;;;46.87;25.80;;;0.70;99.90;;;;;;5071149;28;20203;-66
2022/11/21 04:56:58;;;;;;;52.40;26.20;;;0.80;99.90;;;;;;5070519;28;20200;-66
2022/11/21 04:59:25;;;;;;;48.57;26.30;;;0.80;99.90;;;;;;5070077;28;20564;-65
2022/11/21 05:01:51;;;;;;;81.83;29.30;;;0.90;99.90;;;;;;5070681;28;20185;-67
2022/11/21 05:04:18;;;;;;;54.70;26.87;;;0.90;99.90;;;;;;5069599;28;20209;-66
2022/11/21 05:06:45;;;;;;;68.37;29.87;;;0.80;99.90;;;;;;5068983;28;20209;-67
2022/11/21 05:09:12;;;;;;;93.27;31.17;;;0.80;99.90;;;;;;5071280;28;20225;-65
2022/11/21 05:14:25;;;;;;;85.03;33.33;;;0.80;99.90;;;;;;5071072;28;20188;-66
2022/11/21 05:16:52;;;;;;;86.73;33.30;;;0.70;99.90;;;;;;5070930;28;20209;-65
2022/11/21 05:19:18;;;;;;;83.73;32.37;;;0.70;99.90;;;;;;5071132;28;20203;-65
2022/11/21 05:21:45;;;;;;;69.70;32.20;;;0.70;99.90;;;;;;5070532;28;20207;-66
2022/11/21 05:24:12;;;;;;;62.03;32.10;;;0.70;99.90;;;;;;5072632;28;20688;-65
2022/11/21 05:26:39;;;;;;;65.13;30.37;;;0.80;99.90;;;;;;5074403;28;20204;-65
2022/11/21 05:29:06;;;;;;;70.53;31.90;;;0.80;99.90;;;;;;5074628;28;20702;-66
2022/11/21 05:31:34;;;;;;;66.10;31.80;;;0.80;99.90;;;;;;5074174;28;20258;-66
2022/11/21 05:34:00;;;;;;;67.03;32.00;;;0.80;99.90;;;;;;5074053;28;20204;-65
2022/11/21 05:36:27;;;;;;;58.97;30.57;;;0.80;99.90;;;;;;5057899;28;20228;-65
2022/11/21 05:38:54;;;;;;;71.73;32.67;;;0.80;99.90;;;;;;5054620;28;20212;-66
2022/11/21 05:41:21;;;;;;;81.37;33.23;;;0.80;99.90;;;;;;5054613;28;20749;-65
2022/11/21 05:43:47;;;;;;;69.20;32.60;;;0.80;99.90;;;;;;5054405;28;20235;-66
2022/11/21 05:46:15;;;;;;;80.27;33.03;;;0.70;99.90;;;;;;5064644;28;20245;-66
2022/11/21 05:48:43;;;;;;;62.13;30.57;;;0.70;99.90;;;;;;5073752;28;20308;-66
2022/11/21 05:51:10;;;;;;;54.97;27.47;;;0.70;99.90;;;;;;5076214;28;20196;-66
2022/11/21 05:53:37;;;;;;;55.67;27.20;;;0.70;99.90;;;;;;5092077;28;20208;-65
2022/11/21 05:56:06;;;;;;;53.53;27.73;;;0.70;99.90;;;;;;5094577;28;20223;-65
2022/11/21 05:58:34;;;;;;;67.63;32.17;;;0.70;99.90;;;;;;5094267;28;20663;-66
2022/11/21 06:01:01;;;;;;;65.73;30.50;;;0.70;99.90;;;;;;5086281;28;20239;-66
2022/11/21 18:30:24;;;;;;;15.97;10.90;;;0.70;99.90;;;;;;5642624;22;20668;-67
2022/11/21 18:32:51;;;;;;;15.00;9.47;;;0.70;99.90;;;;;;5085723;28;20200;-65
2022/11/21 18:35:18;;;;;;;13.87;9.40;;;0.80;99.90;;;;;;5089263;28;20199;-67
2022/11/21 18:37:44;;;;;;;14.87;10.07;;;0.90;99.90;;;;;;5084641;28;20584;-67
2022/11/21 18:40:12;;;;;;;14.33;9.30;;;1.00;99.90;;;;;;5071270;28;20288;-66
2022/11/21 18:42:39;;;;;;;10.87;8.00;;;1.10;99.90;;;;;;5062853;28;20572;-67
2022/11/21 18:45:07;;;;;;;11.43;8.00;;;1.20;99.90;;;;;;5068984;28;20303;-69
2022/11/21 18:47:35;;;;;;;9.63;7.40;;;1.30;99.90;;;;;;5049192;28;20220;-67
2022/11/21 18:50:02;;;;;;;14.20;8.27;;;1.30;99.90;;;;;;5051597;28;20217;-67
2022/11/21 18:52:32;;;;;;;11.50;8.23;;;1.30;99.90;;;;;;5049122;28;20641;-66
2022/11/21 18:54:59;;;;;;;12.87;8.67;;;1.30;99.90;;;;;;5049155;28;20248;-67
2022/11/21 18:57:25;;;;;;;10.20;7.73;;;1.40;99.90;;;;;;5048426;28;20202;-67
2022/11/21 18:59:52;;;;;;;9.43;6.43;;;1.40;99.90;;;;;;5053295;28;20203;-66
2022/11/21 19:02:19;;;;;;;14.40;10.63;;;1.40;99.90;;;;;;5068269;28;20598;-68
2022/11/21 19:04:47;;;;;;;8.33;6.67;;;1.40;99.90;;;;;;5065399;28;20631;-69
2022/11/21 19:07:14;;;;;;;10.27;7.37;;;1.50;99.90;;;;;;5067685;28;20201;-69
2022/11/21 19:09:40;;;;;;;14.00;8.10;;;1.40;99.90;;;;;;5068138;28;20230;-69
2022/11/21 19:12:08;;;;;;;10.57;7.17;;;1.40;99.90;;;;;;5067657;28;20205;-70
2022/11/21 19:14:34;;;;;;;12.40;8.50;;;1.40;99.90;;;;;;5066739;28;20208;-70
2022/11/21 19:17:01;;;;;;;11.47;8.17;;;1.40;99.90;;;;;;5066699;28;20232;-71
2022/11/21 19:19:28;;;;;;;12.63;8.27;;;1.40;99.90;;;;;;5066295;28;20197;-69
2022/11/21 19:21:56;;;;;;;12.80;8.70;;;1.50;99.90;;;;;;5068773;28;20224;-70
2022/11/21 19:24:23;;;;;;;17.03;10.80;;;1.50;99.90;;;;;;5066639;28;20197;-71
2022/11/21 19:26:49;;;;;;;18.10;11.30;;;1.50;99.90;;;;;;5068450;28;20200;-71
2022/11/21 19:29:17;;;;;;;15.67;10.03;;;1.50;99.90;;;;;;5066833;28;20232;-72
2022/11/21 19:31:44;;;;;;;13.23;8.83;;;1.50;99.90;;;;;;5064006;28;20233;-70
2022/11/21 19:34:11;;;;;;;11.30;7.07;;;1.50;99.90;;;;;;5065825;28;20209;-70
2022/11/21 19:36:38;;;;;;;8.17;5.93;;;1.50;99.90;;;;;;5064427;28;20771;-70
2022/11/21 19:39:07;;;;;;;11.07;6.93;;;1.50;99.90;;;;;;5068628;28;20223;-70
2022/11/21 19:41:34;;;;;;;8.10;5.53;;;1.50;99.90;;;;;;5053691;28;20231;-72
2022/11/21 19:44:02;;;;;;;7.80;6.00;;;1.50;99.90;;;;;;5055391;28;20210;-70
2022/11/21 19:46:32;;;;;;;15.80;10.37;;;1.50;99.90;;;;;;5074367;28;20204;-70
2022/11/21 19:48:59;;;;;;;18.63;11.77;;;1.60;99.90;;;;;;5064454;28;20213;-70
2022/11/21 19:51:29;;;;;;;12.70;8.10;;;1.60;99.90;;;;;;5053273;28;20213;-70
2022/11/21 19:53:56;;;;;;;13.20;7.90;;;1.60;99.90;;;;;;5053907;28;20228;-70
2022/11/21 19:56:25;;;;;;;9.53;6.43;;;1.50;99.90;;;;;;5054355;28;20198;-69
2022/11/21 19:58:53;;;;;;;6.93;4.97;;;1.50;99.90;;;;;;5053978;28;20468;-71
2022/11/21 20:01:21;;;;;;;7.33;5.50;;;1.50;99.90;;;;;;5053895;28;20201;-70
2022/11/21 20:03:53;;;;;;;5.77;4.53;;;1.50;99.90;;;;;;5054120;28;20561;-69
2022/11/21 20:06:22;;;;;;;32.23;22.77;;;1.50;99.90;;;;;;5053484;28;20202;-70
2022/11/21 20:08:51;;;;;;;7.90;4.93;;;1.50;99.90;;;;;;5054026;28;20762;-71
2022/11/21 20:11:19;;;;;;;5.93;4.13;;;1.60;99.90;;;;;;5072810;28;20610;-69
2022/11/21 20:13:49;;;;;;;4.20;3.67;;;1.50;99.90;;;;;;5069031;28;20201;-67
2022/11/21 20:16:18;;;;;;;4.77;4.07;;;1.60;99.90;;;;;;5052741;28;20233;-67
2022/11/21 20:18:45;;;;;;;4.73;3.87;;;1.50;99.90;;;;;;5054048;28;20224;-70
2022/11/21 20:21:13;;;;;;;5.87;4.57;;;1.50;99.90;;;;;;5062657;28;20202;-70
2022/11/21 20:23:44;;;;;;;7.17;5.00;;;1.60;99.90;;;;;;5049356;28;20569;-68
2022/11/21 20:26:12;;;;;;;7.97;5.50;;;1.60;99.90;;;;;;5039119;28;20201;-70
2022/11/21 20:28:39;;;;;;;8.77;5.53;;;1.60;99.90;;;;;;5053340;28;20281;-71
2022/11/21 20:31:10;;;;;;;8.10;5.17;;;1.60;99.90;;;;;;5053242;28;20235;-66
2022/11/21 20:33:38;;;;;;;9.47;6.80;;;1.60;99.90;;;;;;5043653;28;20201;-67
2022/11/21 20:36:09;;;;;;;9.33;6.70;;;1.50;99.90;;;;;;5048508;28;20201;-67
2022/11/21 20:38:36;;;;;;;8.23;6.27;;;1.60;99.90;;;;;;5053353;28;20264;-67
2022/11/21 20:41:04;;;;;;;8.27;5.77;;;1.50;99.90;;;;;;5053007;28;20336;-67
2022/11/21 20:43:31;;;;;;;9.40;6.33;;;1.50;99.90;;;;;;5053152;28;20209;-70
2022/11/21 20:46:01;;;;;;;8.90;6.53;;;1.50;99.90;;;;;;5053498;28;20209;-71
2022/11/21 20:48:30;;;;;;;10.83;6.97;;;1.50;99.90;;;;;;5053624;28;20186;-68
2022/11/21 20:50:57;;;;;;;13.73;8.47;;;1.50;99.90;;;;;;5072062;28;20204;-71
2022/11/21 20:53:26;;;;;;;14.10;8.60;;;1.50;99.90;;;;;;5060000;28;20204;-67
2022/11/21 20:55:53;;;;;;;10.20;6.73;;;1.40;99.90;;;;;;5056742;28;20236;-70
2022/11/21 20:58:20;;;;;;;12.47;8.83;;;1.40;99.90;;;;;;5051056;28;20577;-70
2022/11/21 21:00:47;;;;;;;12.40;7.60;;;1.40;99.90;;;;;;5044714;28;20194;-70
2022/11/21 21:03:14;;;;;;;12.93;8.17;;;1.40;99.90;;;;;;5052261;28;20230;-73
2022/11/21 21:05:42;;;;;;;14.50;8.67;;;1.40;99.90;;;;;;5050615;28;20251;-70
2022/11/21 21:08:09;;;;;;;16.30;7.70;;;1.40;99.90;;;;;;5036263;28;20201;-70
2022/11/21 21:10:35;;;;;;;11.47;7.90;;;1.40;99.90;;;;;;5052654;28;20217;-70
2022/11/21 21:13:02;;;;;;;11.60;6.53;;;1.30;99.90;;;;;;5052684;28;20216;-70
2022/11/21 21:15:29;;;;;;;9.63;6.30;;;1.30;99.90;;;;;;5052062;28;20201;-70
2022/11/21 21:17:56;;;;;;;9.73;6.87;;;1.30;99.90;;;;;;5052211;28;20218;-72
2022/11/21 21:20:23;;;;;;;7.77;5.20;;;1.30;99.90;;;;;;5051608;28;20197;-69
2022/11/21 21:22:53;;;;;;;9.13;5.40;;;1.30;99.90;;;;;;5050772;28;20583;-69
2022/11/21 21:25:20;;;;;;;8.13;5.57;;;1.30;99.90;;;;;;5031264;28;20562;-67
2022/11/21 21:27:48;;;;;;;8.37;5.53;;;1.30;99.90;;;;;;5032664;28;20205;-69
2022/11/21 21:30:16;;;;;;;9.03;6.37;;;1.30;99.90;;;;;;5052989;28;20245;-70
2022/11/21 21:32:46;;;;;;;8.73;6.00;;;1.30;99.90;;;;;;5066292;28;20217;-68
2022/11/21 21:35:13;;;;;;;10.07;6.67;;;1.30;99.90;;;;;;5062358;28;20201;-70
2022/11/21 21:37:39;;;;;;;8.63;5.67;;;1.30;99.90;;;;;;5072304;28;20205;-68
2022/11/21 21:40:11;;;;;;;9.50;5.90;;;1.30;99.90;;;;;;5072373;28;20278;-68
2022/11/21 21:42:38;;;;;;;7.40;5.10;;;1.30;99.90;;;;;;5072534;28;20200;-67
2022/11/21 21:45:05;;;;;;;7.77;5.20;;;1.20;99.90;;;;;;5072681;28;20204;-68
2022/11/21 21:47:32;;;;;;;8.57;6.00;;;1.20;99.90;;;;;;5060464;28;20202;-65
2022/11/21 21:49:58;;;;;;;8.57;6.20;;;1.20;99.90;;;;;;5050540;28;20247;-68
2022/11/21 21:52:25;;;;;;;11.90;7.30;;;1.20;99.90;;;;;;5052007;28;20333;-66
2022/11/21 21:54:52;;;;;;;9.53;6.53;;;1.20;99.90;;;;;;5051362;28;20198;-65
2022/11/21 21:57:20;;;;;;;11.33;7.83;;;1.20;99.90;;;;;;5051110;28;20204;-64
2022/11/21 21:59:47;;;;;;;10.73;6.90;;;1.20;99.90;;;;;;5050820;28;20194;-68
2022/11/21 22:02:14;;;;;;;10.07;6.80;;;1.20;99.90;;;;;;5051872;28;20204;-65
2022/11/21 22:04:40;;;;;;;8.63;6.50;;;1.20;99.90;;;;;;5051382;28;20201;-66
2022/11/21 22:07:07;;;;;;;8.23;5.20;;;1.30;99.90;;;;;;5049626;28;20208;-67
2022/11/21 22:09:34;;;;;;;5.77;4.10;;;1.30;99.90;;;;;;5049617;28;20225;-66
2022/11/21 22:12:01;;;;;;;6.57;4.17;;;1.40;99.90;;;;;;5051982;28;20677;-67
2022/11/21 22:14:29;;;;;;;5.20;3.90;;;1.40;99.90;;;;;;5051310;28;20575;-66
2022/11/21 22:16:56;;;;;;;4.37;3.67;;;1.30;99.90;;;;;;5051677;28;20205;-65
2022/11/21 22:19:23;;;;;;;3.53;3.17;;;1.30;99.90;;;;;;5051579;28;20204;-67
2022/11/21 22:21:50;;;;;;;5.50;3.80;;;1.30;99.90;;;;;;5051647;28;20219;-67
2022/11/21 22:24:17;;;;;;;4.70;3.97;;;1.30;99.90;;;;;;5049748;28;20216;-67
2022/11/21 22:26:45;;;;;;;7.47;5.33;;;1.20;99.90;;;;;;5051441;28;20247;-66
2022/11/21 22:29:12;;;;;;;9.93;6.70;;;1.10;99.90;;;;;;5051807;28;20212;-66
2022/11/21 22:31:40;;;;;;;9.60;6.97;;;1.10;99.90;;;;;;5052222;28;20243;-69
2022/11/21 22:34:09;;;;;;;7.57;5.70;;;1.00;99.90;;;;;;5050381;28;20289;-66
2022/11/21 22:36:36;;;;;;;6.90;5.00;;;1.00;99.90;;;;;;5050785;28;20201;-66
2022/11/21 22:39:03;;;;;;;6.93;4.80;;;1.00;99.90;;;;;;5047087;28;20213;-65
2022/11/21 22:41:29;;;;;;;6.07;4.63;;;0.90;99.90;;;;;;5046924;28;20734;-66
2022/11/21 22:43:59;;;;;;;5.97;4.40;;;0.90;99.90;;;;;;5072055;28;20259;-65
2022/11/21 22:46:27;;;;;;;6.43;5.43;;;1.00;99.90;;;;;;5057706;28;20205;-66
2022/11/21 22:48:56;;;;;;;5.87;4.83;;;1.00;99.90;;;;;;5051796;28;20205;-65
2022/11/21 22:51:24;;;;;;;5.93;4.80;;;0.90;99.90;;;;;;5051277;28;20225;-65
2022/11/21 22:53:52;;;;;;;5.70;4.97;;;0.90;99.90;;;;;;5051818;28;20205;-66
2022/11/21 22:56:20;;;;;;;5.90;4.90;;;0.80;99.90;;;;;;5051072;28;20665;-66
2022/11/21 22:58:48;;;;;;;7.63;4.90;;;0.80;99.90;;;;;;5051519;28;20209;-67
2022/11/21 23:01:16;;;;;;;6.33;4.47;;;0.80;99.90;;;;;;5051273;28;20197;-66
2022/11/21 23:03:44;;;;;;;6.53;5.03;;;0.80;99.90;;;;;;5051497;28;20717;-65
2022/11/21 23:06:13;;;;;;;7.90;5.47;;;0.80;99.90;;;;;;5051330;28;20657;-64
2022/11/21 23:08:41;;;;;;;6.10;5.10;;;0.80;99.90;;;;;;5049017;28;20209;-68
2022/11/21 23:11:09;;;;;;;5.57;4.63;;;0.80;99.90;;;;;;5050723;28;20225;-64
2022/11/21 23:13:38;;;;;;;5.03;4.40;;;0.90;99.90;;;;;;5051421;28;20216;-65
2022/11/21 23:16:06;;;;;;;6.23;5.00;;;0.90;99.90;;;;;;5051540;28;20206;-65
2022/11/21 23:18:34;;;;;;;6.13;5.10;;;0.90;99.90;;;;;;5035302;28;20210;-64
2022/11/21 23:21:02;;;;;;;6.97;4.87;;;0.90;99.90;;;;;;5035230;28;20569;-64
2022/11/21 23:23:31;;;;;;;7.50;5.50;;;0.90;99.90;;;;;;5035039;28;20670;-64
2022/11/21 23:25:58;;;;;;;7.53;5.57;;;0.90;99.90;;;;;;5034634;28;20202;-66
2022/11/21 23:28:25;;;;;;;6.63;5.33;;;0.80;99.90;;;;;;5034896;28;20607;-66
2022/11/21 23:30:52;;;;;;;9.87;6.33;;;0.90;99.90;;;;;;5034712;28;20249;-65
2022/11/21 23:33:19;;;;;;;8.23;6.17;;;0.70;99.90;;;;;;5051730;28;20229;-65
2022/11/21 23:35:47;;;;;;;7.67;5.93;;;0.60;99.90;;;;;;5053802;28;20649;-66
2022/11/21 23:38:16;;;;;;;7.37;5.87;;;0.70;99.90;;;;;;5053805;28;20201;-66
2022/11/21 23:40:46;;;;;;;8.27;6.23;;;0.60;99.90;;;;;;5053875;28;20206;-66
2022/11/21 23:43:13;;;;;;;8.80;7.10;;;0.60;99.90;;;;;;5054282;28;20190;-67
2022/11/21 23:45:41;;;;;;;8.50;6.30;;;0.60;99.90;;;;;;5054769;28;20202;-66
2022/11/21 23:48:08;;;;;;;7.83;6.23;;;0.60;99.90;;;;;;5053512;28;20201;-65
2022/11/21 23:50:35;;;;;;;8.07;6.20;;;0.60;99.90;;;;;;5034675;28;20232;-66
2022/11/21 23:53:02;;;;;;;7.10;5.57;;;0.60;99.90;;;;;;5034208;28;20210;-66
2022/11/21 23:55:29;;;;;;;6.77;5.63;;;0.60;99.90;;;;;;5043487;28;20251;-66
2022/11/21 23:57:57;;;;;;;8.00;5.77;;;0.50;99.90;;;;;;5054162;28;20210;-66
